»·PEaware :: N5758Q KYKM-KSLE

N5758Q :: KYKM-KSLE

FLIGHT INFORMATION

Flight Status: Arrived
Operator: Privately registered:
United States
More flights under this callsign
Pilot: Carl S. (13490)
Aircraft: MOONEY M-20 201 202 205 220 ATS MSE
(M20P)
More flights by this aircraft type
Origin: KYKM Yakima Air Term/Mcallister
United States
Destination: KSLE McNary
United States
More flights between these airports :: More routes between these airports
Route: GROMO4 HITCH V468 BTG V448 NECIP
File this flight plan on PilotEdge
Remarks:
Altitude:
(Current/Filed)
10,000ft
Speed:
(Current/Filed)
130kts
Departed: 02-Feb-18 07:38 PM
Arrived: 02-Feb-18 09:01 PM
Distance/Time
Traveled:
143nm/1:23
Distance/Time
To Go:
Arrived

Flight Plot

Page will automatically refresh every two minutes.

Flight plan parsing failed; only flown route is shown


Map Options




Map Legend


Flown Route
Filed Route
Departure Airport
Arrival Airport
Navaid (VOR, NDB)
Fix

Horizontal Profiles

Position Reports

Time Latitude Longitude Heading Altitude Ground
Speed
02-Feb-18 19:13 47.777339 -116.809140 278 2314ft 0kts
02-Feb-18 19:14 47.777339 -116.809140 278 2314ft 0kts
02-Feb-18 19:15 47.777339 -116.809140 278 2314ft 0kts
02-Feb-18 19:16 47.777339 -116.809140 278 2314ft 0kts
02-Feb-18 19:17 46.569986 -120.541859 270 1066ft 0kts
02-Feb-18 19:18 46.569986 -120.541859 270 1066ft 0kts
02-Feb-18 19:19 46.569986 -120.541859 270 1066ft 0kts
02-Feb-18 19:20 46.569986 -120.541859 270 1066ft 0kts
02-Feb-18 19:21 46.569986 -120.541859 270 1066ft 0kts
02-Feb-18 19:22 46.569986 -120.541859 270 1066ft 0kts
02-Feb-18 19:23 46.569986 -120.541859 270 1066ft 0kts
02-Feb-18 19:24 46.569986 -120.541859 270 1066ft 0kts
02-Feb-18 19:25 46.569986 -120.541859 270 1066ft 0kts
02-Feb-18 19:26 46.569986 -120.541859 270 1066ft 0kts
02-Feb-18 19:27 46.569986 -120.541859 270 1066ft 0kts
02-Feb-18 19:28 46.569986 -120.541859 270 1066ft 0kts
02-Feb-18 19:29 46.569986 -120.541859 270 1066ft 0kts
02-Feb-18 19:30 46.569986 -120.541859 270 1066ft 0kts
02-Feb-18 19:31 46.569986 -120.541859 270 1066ft 0kts
02-Feb-18 19:32 46.569986 -120.541859 270 1066ft 0kts
02-Feb-18 19:33 46.569986 -120.541859 270 1066ft 0kts
02-Feb-18 19:34 46.569951 -120.542042 218 1066ft 4kts
02-Feb-18 19:35 46.568510 -120.538845 129 1060ft 16kts
02-Feb-18 19:36 46.566505 -120.531506 182 1046ft 0kts
02-Feb-18 19:37 46.566505 -120.531506 182 1046ft 0kts
02-Feb-18 19:38 46.566505 -120.531506 182 1046ft 0kts
02-Feb-18 19:39 46.566505 -120.531506 182 1046ft 0kts
02-Feb-18 19:41 46.566505 -120.531506 182 1046ft 0kts
02-Feb-18 19:41 46.566505 -120.531506 182 1046ft 0kts
02-Feb-18 19:42 46.566379 -120.531499 172 1046ft 9kts
02-Feb-18 19:43 46.565594 -120.531875 299 1046ft 0kts
02-Feb-18 19:44 46.570226 -120.549975 292 1554ft 67kts
02-Feb-18 19:45 46.572380 -120.579538 271 2497ft 78kts
02-Feb-18 19:46 46.571997 -120.611764 279 3426ft 77kts
02-Feb-18 19:47 46.572787 -120.642021 281 4277ft 74kts
02-Feb-18 19:48 46.566141 -120.667404 185 5078ft 113kts
02-Feb-18 19:49 46.533362 -120.643683 178 5787ft 127kts
02-Feb-18 19:50 46.498246 -120.633873 166 6633ft 131kts
02-Feb-18 19:51 46.464007 -120.610974 212 7272ft 133kts
02-Feb-18 19:52 46.443042 -120.640858 244 8206ft 102kts
02-Feb-18 19:53 46.423939 -120.672110 244 8948ft 105kts
02-Feb-18 19:54 46.404009 -120.702971 245 9636ft 109kts
02-Feb-18 19:55 46.381944 -120.736731 242 10075ft 128kts
02-Feb-18 19:56 46.364551 -120.781777 261 10210ft 135kts
02-Feb-18 19:57 46.351018 -120.835105 252 10093ft 155kts
02-Feb-18 19:58 46.307318 -120.861475 192 10153ft 192kts
02-Feb-18 19:59 46.267609 -120.897778 236 10105ft 166kts
02-Feb-18 20:00 46.231641 -120.941633 236 10030ft 169kts
02-Feb-18 20:01 46.202344 -120.991216 255 10023ft 155kts
02-Feb-18 20:02 46.179257 -121.044750 237 10033ft 167kts
02-Feb-18 20:03 46.148981 -121.094317 244 10028ft 162kts
02-Feb-18 20:04 46.121045 -121.144380 244 10115ft 159kts
02-Feb-18 20:05 46.086924 -121.188555 232 10107ft 170kts
02-Feb-18 20:06 46.052645 -121.233056 243 10096ft 164kts
02-Feb-18 20:07 46.021525 -121.281817 240 10049ft 167kts
02-Feb-18 20:08 45.990191 -121.329860 240 10099ft 163kts
02-Feb-18 20:09 45.964193 -121.380359 259 10034ft 153kts
02-Feb-18 20:10 45.953359 -121.437096 270 10052ft 144kts
02-Feb-18 20:11 45.943384 -121.493056 267 10098ft 143kts
02-Feb-18 20:12 45.933995 -121.548547 267 10123ft 143kts
02-Feb-18 20:13 45.924349 -121.604590 268 10101ft 145kts
02-Feb-18 20:14 45.915436 -121.658819 267 10040ft 146kts
02-Feb-18 20:15 45.905645 -121.715359 267 10040ft 145kts
02-Feb-18 20:16 45.896427 -121.769529 267 10089ft 141kts
02-Feb-18 20:17 45.887434 -121.823655 267 10134ft 138kts
02-Feb-18 20:18 45.878837 -121.877029 267 10165ft 136kts
02-Feb-18 20:19 45.870267 -121.929934 266 10190ft 136kts
02-Feb-18 20:20 45.861131 -121.983069 266 10191ft 137kts
02-Feb-18 20:21 45.851380 -122.036082 266 10191ft 137kts
02-Feb-18 20:22 45.841726 -122.088939 265 10191ft 137kts
02-Feb-18 20:23 45.832031 -122.142047 265 10191ft 137kts
02-Feb-18 20:24 45.822366 -122.194956 265 10190ft 137kts
02-Feb-18 20:25 45.812699 -122.247898 265 10190ft 137kts
02-Feb-18 20:26 45.803064 -122.300732 266 10190ft 137kts
02-Feb-18 20:27 45.793441 -122.353404 266 10189ft 137kts
02-Feb-18 20:28 45.783802 -122.406218 266 10189ft 137kts
02-Feb-18 20:29 45.773982 -122.458778 266 10187ft 137kts
02-Feb-18 20:30 45.763648 -122.513444 266 10007ft 146kts
02-Feb-18 20:31 45.752841 -122.568985 266 10008ft 144kts
02-Feb-18 20:32 45.720127 -122.604334 201 10006ft 186kts
02-Feb-18 20:33 45.670907 -122.622853 214 10003ft 179kts
02-Feb-18 20:34 45.625363 -122.650023 215 10007ft 179kts
02-Feb-18 20:35 45.578690 -122.676770 212 10014ft 182kts
02-Feb-18 20:36 45.531580 -122.701457 212 10017ft 179kts
02-Feb-18 20:37 45.492775 -122.690653 133 11248ft 146kts
02-Feb-18 20:38 45.462883 -122.634150 124 10950ft 210kts
02-Feb-18 20:39 45.414155 -122.587862 164 10461ft 218kts
02-Feb-18 20:40 45.356638 -122.574306 188 10089ft 200kts
02-Feb-18 20:41 45.302772 -122.575803 198 10017ft 183kts
02-Feb-18 20:42 45.256755 -122.594369 210 9919ft 176kts
02-Feb-18 20:43 45.212213 -122.616129 207 9851ft 178kts
02-Feb-18 20:44 45.162030 -122.611690 172 10039ft 187kts
02-Feb-18 20:45 45.113100 -122.585288 173 10159ft 186kts
02-Feb-18 20:46 45.062193 -122.566803 168 9988ft 201kts
02-Feb-18 20:47 45.019221 -122.574896 240 10131ft 146kts
02-Feb-18 20:48 45.002047 -122.624770 249 9909ft 149kts
02-Feb-18 20:49 44.962664 -122.654188 209 9427ft 164kts
02-Feb-18 20:50 44.925794 -122.690388 237 8376ft 160kts
02-Feb-18 20:51 44.888212 -122.726435 214 7637ft 174kts
02-Feb-18 20:52 44.850450 -122.764247 236 7021ft 163kts
02-Feb-18 20:53 44.821954 -122.797991 200 6425ft 183kts
02-Feb-18 20:54 44.771234 -122.814270 201 5730ft 177kts
02-Feb-18 20:55 44.733260 -122.850653 232 4931ft 160kts
02-Feb-18 20:56 44.696589 -122.875397 151 4027ft 168kts
02-Feb-18 20:57 44.658178 -122.844939 132 3410ft 152kts
02-Feb-18 20:58 44.672274 -122.818000 310 3046ft 127kts
02-Feb-18 20:59 44.698694 -122.850358 337 3070ft 139kts
02-Feb-18 21:00 44.738292 -122.862019 346 3213ft 150kts
02-Feb-18 21:01 44.770923 -122.890115 323 2938ft 132kts
02-Feb-18 21:02 44.802486 -122.915498 331 2390ft 133kts
02-Feb-18 21:03 44.834426 -122.941209 330 1770ft 122kts
02-Feb-18 21:04 44.861147 -122.963021 320 1181ft 96kts
02-Feb-18 21:05 44.882715 -122.980150 328 746ft 81kts
02-Feb-18 21:06 44.901802 -122.995108 329 260ft 72kts
02-Feb-18 21:07 44.910674 -123.000981 25 203ft 0kts

Navigation Log

Ident Type
Flight plan parsing failed, navigation log unavailable